sensor_id;sensor_type;location;lat;lon;timestamp;temperature;humidity
14620;DHT22;32125;48.518;9.050;2022-08-11T00:01:36;18.20;98.80
14620;DHT22;32125;48.518;9.050;2022-08-11T00:04:04;18.20;99.50
14620;DHT22;32125;48.518;9.050;2022-08-11T00:06:37;18.10;98.50
14620;DHT22;32125;48.518;9.050;2022-08-11T00:09:07;18.10;99.40
14620;DHT22;32125;48.518;9.050;2022-08-11T00:11:40;18.00;99.90
14620;DHT22;32125;48.518;9.050;2022-08-11T00:14:28;18.00;99.90
14620;DHT22;32125;48.518;9.050;2022-08-11T00:17:00;17.90;99.90
14620;DHT22;32125;48.518;9.050;2022-08-11T00:19:31;17.90;99.90
14620;DHT22;32125;48.518;9.050;2022-08-11T00:21:57;17.80;99.90
14620;DHT22;32125;48.518;9.050;2022-08-11T00:24:35;17.80;99.90
14620;DHT22;32125;48.518;9.050;2022-08-11T00:27:04;17.80;99.90
14620;DHT22;32125;48.518;9.050;2022-08-11T00:29:33;17.70;99.90
14620;DHT22;32125;48.518;9.050;2022-08-11T00:32:03;17.70;99.90
14620;DHT22;32125;48.518;9.050;2022-08-11T00:34:36;17.70;99.90
14620;DHT22;32125;48.518;9.050;2022-08-11T00:37:19;17.70;99.90
14620;DHT22;32125;48.518;9.050;2022-08-11T00:39:50;17.60;99.90
14620;DHT22;32125;48.518;9.050;2022-08-11T00:54:38;17.50;99.90
14620;DHT22;32125;48.518;9.050;2022-08-11T01:00:18;17.40;99.90
14620;DHT22;32125;48.518;9.050;2022-08-11T01:19:30;17.00;99.90
14620;DHT22;32125;48.518;9.050;2022-08-11T01:42:04;16.50;99.90
14620;DHT22;32125;48.518;9.050;2022-08-11T01:58:50;16.40;99.90
14620;DHT22;32125;48.518;9.050;2022-08-11T02:06:42;16.30;99.90
14620;DHT22;32125;48.518;9.050;2022-08-11T02:09:49;16.20;99.90
14620;DHT22;32125;48.518;9.050;2022-08-11T02:15:28;16.20;99.90
14620;DHT22;32125;48.518;9.050;2022-08-11T02:18:55;16.10;99.90
14620;DHT22;32125;48.518;9.050;2022-08-11T02:21:22;16.00;99.90
14620;DHT22;32125;48.518;9.050;2022-08-11T02:24:17;16.00;99.90
14620;DHT22;32125;48.518;9.050;2022-08-11T02:27:21;15.90;99.90
14620;DHT22;32125;48.518;9.050;2022-08-11T02:29:54;15.90;99.90
14620;DHT22;32125;48.518;9.050;2022-08-11T02:32:35;15.80;99.90
14620;DHT22;32125;48.518;9.050;2022-08-11T02:35:29;15.80;99.90
14620;DHT22;32125;48.518;9.050;2022-08-11T02:40:59;15.80;99.90
14620;DHT22;32125;48.518;9.050;2022-08-11T02:48:47;15.60;99.90
14620;DHT22;32125;48.518;9.050;2022-08-11T02:52:06;15.50;99.90
14620;DHT22;32125;48.518;9.050;2022-08-11T02:57:34;15.50;99.90
14620;DHT22;32125;48.518;9.050;2022-08-11T03:03:06;15.40;99.90
14620;DHT22;32125;48.518;9.050;2022-08-11T03:11:00;15.40;99.90
14620;DHT22;32125;48.518;9.050;2022-08-11T03:17:24;15.30;99.90
14620;DHT22;32125;48.518;9.050;2022-08-11T03:22:58;15.20;99.90
14620;DHT22;32125;48.518;9.050;2022-08-11T03:33:48;15.20;99.90
14620;DHT22;32125;48.518;9.050;2022-08-11T03:45:27;15.10;99.90
14620;DHT22;32125;48.518;9.050;2022-08-11T03:51:30;15.00;99.90
14620;DHT22;32125;48.518;9.050;2022-08-11T03:54:10;15.00;99.90
14620;DHT22;32125;48.518;9.050;2022-08-11T04:19:51;14.90;99.90
14620;DHT22;32125;48.518;9.050;2022-08-11T04:33:57;14.80;99.90
14620;DHT22;32125;48.518;9.050;2022-08-11T04:39:38;14.70;99.90
14620;DHT22;32125;48.518;9.050;2022-08-11T04:46:31;14.50;99.90
14620;DHT22;32125;48.518;9.050;2022-08-11T04:48:47;14.50;99.90
14620;DHT22;32125;48.518;9.050;2022-08-11T04:52:41;14.50;99.90
14620;DHT22;32125;48.518;9.050;2022-08-11T05:01:38;14.50;99.90
14620;DHT22;32125;48.518;9.050;2022-08-11T05:10:36;14.50;99.90
14620;DHT22;32125;48.518;9.050;2022-08-11T05:18:57;14.50;99.90
14620;DHT22;32125;48.518;9.050;2022-08-11T05:21:46;14.50;99.90
14620;DHT22;32125;48.518;9.050;2022-08-11T05:28:08;14.60;99.90
14620;DHT22;32125;48.518;9.050;2022-08-11T05:31:07;14.60;99.90
14620;DHT22;32125;48.518;9.050;2022-08-11T05:34:02;14.60;99.90
14620;DHT22;32125;48.518;9.050;2022-08-11T05:36:52;14.70;99.90
14620;DHT22;32125;48.518;9.050;2022-08-11T05:39:22;14.80;99.90
14620;DHT22;32125;48.518;9.050;2022-08-11T05:44:55;14.90;99.90
14620;DHT22;32125;48.518;9.050;2022-08-11T05:53:12;15.10;99.90
14620;DHT22;32125;48.518;9.050;2022-08-11T05:55:58;15.20;99.90
14620;DHT22;32125;48.518;9.050;2022-08-11T05:58:42;15.20;99.90
14620;DHT22;32125;48.518;9.050;2022-08-11T06:03:52;15.30;99.90
14620;DHT22;32125;48.518;9.050;2022-08-11T06:09:07;15.40;99.90
14620;DHT22;32125;48.518;9.050;2022-08-11T06:11:38;15.60;99.90
14620;DHT22;32125;48.518;9.050;2022-08-11T06:14:07;15.70;99.90
14620;DHT22;32125;48.518;9.050;2022-08-11T06:19:05;16.00;99.90
14620;DHT22;32125;48.518;9.050;2022-08-11T06:21:33;16.10;99.90
14620;DHT22;32125;48.518;9.050;2022-08-11T06:24:02;16.20;99.90
14620;DHT22;32125;48.518;9.050;2022-08-11T06:26:28;16.40;99.90
14620;DHT22;32125;48.518;9.050;2022-08-11T06:31:25;16.70;99.90
14620;DHT22;32125;48.518;9.050;2022-08-11T06:39:46;17.50;99.90
14620;DHT22;32125;48.518;9.050;2022-08-11T06:42:23;18.00;99.90
14620;DHT22;32125;48.518;9.050;2022-08-11T06:49:58;19.40;99.90
14620;DHT22;32125;48.518;9.050;2022-08-11T06:52:44;19.80;99.90
14620;DHT22;32125;48.518;9.050;2022-08-11T07:00:52;21.00;99.90
14620;DHT22;32125;48.518;9.050;2022-08-11T07:03:23;21.40;99.90
14620;DHT22;32125;48.518;9.050;2022-08-11T07:15:02;23.00;99.90
14620;DHT22;32125;48.518;9.050;2022-08-11T07:17:52;23.40;99.90
14620;DHT22;32125;48.518;9.050;2022-08-11T07:20:39;23.60;99.90
14620;DHT22;32125;48.518;9.050;2022-08-11T07:26:09;24.40;99.90
14620;DHT22;32125;48.518;9.050;2022-08-11T07:32:05;25.10;99.90
14620;DHT22;32125;48.518;9.050;2022-08-11T07:34:33;25.40;98.70
14620;DHT22;32125;48.518;9.050;2022-08-11T07:37:04;25.70;98.70
14620;DHT22;32125;48.518;9.050;2022-08-11T07:39:35;25.90;96.30
14620;DHT22;32125;48.518;9.050;2022-08-11T07:44:34;26.40;94.90
14620;DHT22;32125;48.518;9.050;2022-08-11T07:47:24;26.70;93.30
14620;DHT22;32125;48.518;9.050;2022-08-11T07:50:16;27.00;92.60
14620;DHT22;32125;48.518;9.050;2022-08-11T07:53:02;27.10;91.10
14620;DHT22;32125;48.518;9.050;2022-08-11T07:55:28;27.20;90.80
14620;DHT22;32125;48.518;9.050;2022-08-11T07:57:58;27.40;90.20
14620;DHT22;32125;48.518;9.050;2022-08-11T08:09:00;27.90;82.70
14620;DHT22;32125;48.518;9.050;2022-08-11T08:11:45;28.00;81.30
14620;DHT22;32125;48.518;9.050;2022-08-11T08:14:30;28.10;82.50
14620;DHT22;32125;48.518;9.050;2022-08-11T08:17:17;28.20;80.80
14620;DHT22;32125;48.518;9.050;2022-08-11T08:22:28;28.50;80.00
14620;DHT22;32125;48.518;9.050;2022-08-11T08:24:54;28.50;78.60
14620;DHT22;32125;48.518;9.050;2022-08-11T08:27:24;28.50;77.40
14620;DHT22;32125;48.518;9.050;2022-08-11T08:29:50;28.70;76.70
14620;DHT22;32125;48.518;9.050;2022-08-11T08:32:40;28.70;74.50
14620;DHT22;32125;48.518;9.050;2022-08-11T08:35:08;28.70;75.50
14620;DHT22;32125;48.518;9.050;2022-08-11T08:37:39;28.90;74.60
14620;DHT22;32125;48.518;9.050;2022-08-11T08:40:07;29.00;73.20
14620;DHT22;32125;48.518;9.050;2022-08-11T08:42:46;29.20;74.80
14620;DHT22;32125;48.518;9.050;2022-08-11T08:47:46;29.30;71.70
14620;DHT22;32125;48.518;9.050;2022-08-11T08:50:15;29.40;72.00
14620;DHT22;32125;48.518;9.050;2022-08-11T08:55:21;29.90;69.20
14620;DHT22;32125;48.518;9.050;2022-08-11T08:57:53;29.80;68.10
14620;DHT22;32125;48.518;9.050;2022-08-11T09:02:47;29.80;69.00
14620;DHT22;32125;48.518;9.050;2022-08-11T09:05:18;29.90;67.60
14620;DHT22;32125;48.518;9.050;2022-08-11T09:07:49;29.90;68.70
14620;DHT22;32125;48.518;9.050;2022-08-11T09:10:20;30.00;68.20
14620;DHT22;32125;48.518;9.050;2022-08-11T09:12:46;30.10;68.00
14620;DHT22;32125;48.518;9.050;2022-08-11T09:15:12;30.20;65.00
14620;DHT22;32125;48.518;9.050;2022-08-11T09:17:43;30.30;66.30
14620;DHT22;32125;48.518;9.050;2022-08-11T09:20:21;30.50;65.00
14620;DHT22;32125;48.518;9.050;2022-08-11T09:25:34;30.60;64.10
14620;DHT22;32125;48.518;9.050;2022-08-11T09:28:20;30.40;64.40
14620;DHT22;32125;48.518;9.050;2022-08-11T09:30:51;30.40;65.20
14620;DHT22;32125;48.518;9.050;2022-08-11T09:33:26;30.40;63.60
14620;DHT22;32125;48.518;9.050;2022-08-11T09:35:53;30.40;60.60
14620;DHT22;32125;48.518;9.050;2022-08-11T09:38:24;30.50;61.50
14620;DHT22;32125;48.518;9.050;2022-08-11T09:41:12;30.60;61.70
14620;DHT22;32125;48.518;9.050;2022-08-11T09:46:28;30.70;59.90
14620;DHT22;32125;48.518;9.050;2022-08-11T09:48:56;30.80;60.70
14620;DHT22;32125;48.518;9.050;2022-08-11T09:51:23;30.80;61.00
14620;DHT22;32125;48.518;9.050;2022-08-11T09:53:50;30.80;58.90
14620;DHT22;32125;48.518;9.050;2022-08-11T09:56:22;30.90;58.30
14620;DHT22;32125;48.518;9.050;2022-08-11T10:01:46;31.00;56.90
14620;DHT22;32125;48.518;9.050;2022-08-11T10:04:18;31.20;57.80
14620;DHT22;32125;48.518;9.050;2022-08-11T10:06:52;31.30;57.40
14620;DHT22;32125;48.518;9.050;2022-08-11T10:12:13;31.30;58.00
14620;DHT22;32125;48.518;9.050;2022-08-11T10:14:48;31.30;56.60
14620;DHT22;32125;48.518;9.050;2022-08-11T10:17:35;31.30;55.40
14620;DHT22;32125;48.518;9.050;2022-08-11T10:22:28;31.40;54.10
14620;DHT22;32125;48.518;9.050;2022-08-11T10:25:14;31.60;54.80
14620;DHT22;32125;48.518;9.050;2022-08-11T10:27:59;31.60;54.20
14620;DHT22;32125;48.518;9.050;2022-08-11T10:30:27;31.60;54.40
14620;DHT22;32125;48.518;9.050;2022-08-11T10:33:12;31.40;53.80
14620;DHT22;32125;48.518;9.050;2022-08-11T10:35:58;31.30;53.70
14620;DHT22;32125;48.518;9.050;2022-08-11T10:38:24;31.10;53.40
14620;DHT22;32125;48.518;9.050;2022-08-11T10:43:38;31.20;53.10
14620;DHT22;32125;48.518;9.050;2022-08-11T10:46:10;31.30;54.00
14620;DHT22;32125;48.518;9.050;2022-08-11T10:48:58;31.30;52.20
14620;DHT22;32125;48.518;9.050;2022-08-11T10:51:27;31.40;51.40
14620;DHT22;32125;48.518;9.050;2022-08-11T10:54:14;31.50;52.30
14620;DHT22;32125;48.518;9.050;2022-08-11T10:56:59;31.80;54.10
14620;DHT22;32125;48.518;9.050;2022-08-11T10:59:44;31.90;52.50
14620;DHT22;32125;48.518;9.050;2022-08-11T11:02:13;32.00;53.40
14620;DHT22;32125;48.518;9.050;2022-08-11T11:10:02;32.00;49.40
14620;DHT22;32125;48.518;9.050;2022-08-11T11:12:36;31.90;50.40
14620;DHT22;32125;48.518;9.050;2022-08-11T11:20:48;32.00;49.60
14620;DHT22;32125;48.518;9.050;2022-08-11T11:35:35;32.10;50.50
14620;DHT22;32125;48.518;9.050;2022-08-11T11:37:32;32.00;51.70
14620;DHT22;32125;48.518;9.050;2022-08-11T11:42:35;32.00;49.00
14620;DHT22;32125;48.518;9.050;2022-08-11T11:45:04;32.00;52.10
14620;DHT22;32125;48.518;9.050;2022-08-11T11:47:31;32.00;48.40
14620;DHT22;32125;48.518;9.050;2022-08-11T11:52:31;32.00;48.10
14620;DHT22;32125;48.518;9.050;2022-08-11T12:00:12;32.00;49.40
14620;DHT22;32125;48.518;9.050;2022-08-11T12:02:59;32.00;48.80
14620;DHT22;32125;48.518;9.050;2022-08-11T12:13:16;31.90;49.90
14620;DHT22;32125;48.518;9.050;2022-08-11T12:16:01;31.80;49.80
14620;DHT22;32125;48.518;9.050;2022-08-11T12:18:33;31.80;48.60
14620;DHT22;32125;48.518;9.050;2022-08-11T12:21:00;31.80;49.10
14620;DHT22;32125;48.518;9.050;2022-08-11T12:29:00;31.60;48.00
14620;DHT22;32125;48.518;9.050;2022-08-11T12:31:32;31.20;48.90
14620;DHT22;32125;48.518;9.050;2022-08-11T12:34:15;31.20;51.60
14620;DHT22;32125;48.518;9.050;2022-08-11T12:37:02;31.20;48.60
14620;DHT22;32125;48.518;9.050;2022-08-11T12:39:45;31.20;48.60
14620;DHT22;32125;48.518;9.050;2022-08-11T12:42:33;31.10;48.10
14620;DHT22;32125;48.518;9.050;2022-08-11T12:45:25;31.00;48.30
14620;DHT22;32125;48.518;9.050;2022-08-11T12:48:03;31.00;48.30
14620;DHT22;32125;48.518;9.050;2022-08-11T12:51:02;31.20;49.70
14620;DHT22;32125;48.518;9.050;2022-08-11T12:59:35;31.00;51.00
14620;DHT22;32125;48.518;9.050;2022-08-11T13:02:22;31.00;50.10
14620;DHT22;32125;48.518;9.050;2022-08-11T13:10:06;30.90;48.70
14620;DHT22;32125;48.518;9.050;2022-08-11T13:12:33;30.80;49.10
14620;DHT22;32125;48.518;9.050;2022-08-11T13:15:17;30.70;49.50
14620;DHT22;32125;48.518;9.050;2022-08-11T13:17:50;30.70;50.70
14620;DHT22;32125;48.518;9.050;2022-08-11T13:20:21;30.70;49.70
14620;DHT22;32125;48.518;9.050;2022-08-11T13:22:49;30.50;51.20
14620;DHT22;32125;48.518;9.050;2022-08-11T13:25:21;30.50;51.20
14620;DHT22;32125;48.518;9.050;2022-08-11T13:27:49;30.30;48.80
14620;DHT22;32125;48.518;9.050;2022-08-11T13:30:18;30.20;51.30
14620;DHT22;32125;48.518;9.050;2022-08-11T13:33:03;29.90;49.90
14620;DHT22;32125;48.518;9.050;2022-08-11T13:35:32;29.90;49.20
14620;DHT22;32125;48.518;9.050;2022-08-11T13:38:01;29.80;49.70
14620;DHT22;32125;48.518;9.050;2022-08-11T13:40:28;29.80;50.20
14620;DHT22;32125;48.518;9.050;2022-08-11T13:42:56;29.70;49.70
14620;DHT22;32125;48.518;9.050;2022-08-11T13:45:24;29.60;50.30
14620;DHT22;32125;48.518;9.050;2022-08-11T13:47:57;29.60;51.90
14620;DHT22;32125;48.518;9.050;2022-08-11T13:50:25;29.60;52.10
14620;DHT22;32125;48.518;9.050;2022-08-11T13:58:09;29.30;52.10
14620;DHT22;32125;48.518;9.050;2022-08-11T14:00:40;29.30;53.00
14620;DHT22;32125;48.518;9.050;2022-08-11T14:03:11;29.30;52.00
14620;DHT22;32125;48.518;9.050;2022-08-11T14:05:47;29.30;52.00
14620;DHT22;32125;48.518;9.050;2022-08-11T14:10:51;29.30;51.40
14620;DHT22;32125;48.518;9.050;2022-08-11T14:21:05;29.30;50.90
14620;DHT22;32125;48.518;9.050;2022-08-11T14:23:53;29.20;52.00
14620;DHT22;32125;48.518;9.050;2022-08-11T14:29:09;29.20;54.20
14620;DHT22;32125;48.518;9.050;2022-08-11T14:31:45;29.20;53.20
14620;DHT22;32125;48.518;9.050;2022-08-11T14:34:16;29.20;52.40
14620;DHT22;32125;48.518;9.050;2022-08-11T14:36:44;29.20;53.10
14620;DHT22;32125;48.518;9.050;2022-08-11T14:41:48;29.10;52.30
14620;DHT22;32125;48.518;9.050;2022-08-11T14:44:35;29.10;51.10
14620;DHT22;32125;48.518;9.050;2022-08-11T14:47:21;29.10;52.30
14620;DHT22;32125;48.518;9.050;2022-08-11T14:49:50;29.10;51.60
14620;DHT22;32125;48.518;9.050;2022-08-11T14:52:18;29.20;51.60
14620;DHT22;32125;48.518;9.050;2022-08-11T14:54:47;29.10;50.90
14620;DHT22;32125;48.518;9.050;2022-08-11T14:57:35;29.10;51.40
14620;DHT22;32125;48.518;9.050;2022-08-11T15:00:09;29.10;51.30
14620;DHT22;32125;48.518;9.050;2022-08-11T15:02:38;29.20;51.30
14620;DHT22;32125;48.518;9.050;2022-08-11T15:05:25;29.20;51.90
14620;DHT22;32125;48.518;9.050;2022-08-11T15:10:19;29.30;52.70
14620;DHT22;32125;48.518;9.050;2022-08-11T15:12:45;29.20;52.80
14620;DHT22;32125;48.518;9.050;2022-08-11T15:15:12;29.10;52.40
14620;DHT22;32125;48.518;9.050;2022-08-11T15:17:59;29.10;52.40
14620;DHT22;32125;48.518;9.050;2022-08-11T15:20:28;29.10;51.40
14620;DHT22;32125;48.518;9.050;2022-08-11T15:23:13;29.00;52.20
14620;DHT22;32125;48.518;9.050;2022-08-11T15:26:28;29.00;53.40
14620;DHT22;32125;48.518;9.050;2022-08-11T15:29:14;28.90;52.70
14620;DHT22;32125;48.518;9.050;2022-08-11T15:32:02;28.90;52.10
14620;DHT22;32125;48.518;9.050;2022-08-11T15:34:59;28.90;52.80
14620;DHT22;32125;48.518;9.050;2022-08-11T15:43:24;29.00;52.60
14620;DHT22;32125;48.518;9.050;2022-08-11T15:46:16;29.00;52.30
14620;DHT22;32125;48.518;9.050;2022-08-11T15:48:47;28.90;51.80
14620;DHT22;32125;48.518;9.050;2022-08-11T15:54:05;28.90;53.80
14620;DHT22;32125;48.518;9.050;2022-08-11T15:56:35;28.80;53.40
14620;DHT22;32125;48.518;9.050;2022-08-11T15:59:04;28.80;53.80
14620;DHT22;32125;48.518;9.050;2022-08-11T16:04:56;28.70;53.50
14620;DHT22;32125;48.518;9.050;2022-08-11T16:07:28;28.70;53.50
14620;DHT22;32125;48.518;9.050;2022-08-11T16:10:09;28.70;52.50
14620;DHT22;32125;48.518;9.050;2022-08-11T16:12:59;28.70;51.70
14620;DHT22;32125;48.518;9.050;2022-08-11T16:15:29;28.70;52.80
14620;DHT22;32125;48.518;9.050;2022-08-11T16:20:42;28.70;53.70
14620;DHT22;32125;48.518;9.050;2022-08-11T16:23:09;28.60;52.00
14620;DHT22;32125;48.518;9.050;2022-08-11T16:25:35;28.60;53.30
14620;DHT22;32125;48.518;9.050;2022-08-11T16:28:03;28.60;53.70
14620;DHT22;32125;48.518;9.050;2022-08-11T16:33:01;28.60;50.90
14620;DHT22;32125;48.518;9.050;2022-08-11T16:35:32;28.60;53.50
14620;DHT22;32125;48.518;9.050;2022-08-11T16:38:20;28.50;50.60
14620;DHT22;32125;48.518;9.050;2022-08-11T16:41:01;28.50;53.00
14620;DHT22;32125;48.518;9.050;2022-08-11T16:43:33;28.40;53.40
14620;DHT22;32125;48.518;9.050;2022-08-11T16:46:19;28.30;54.80
14620;DHT22;32125;48.518;9.050;2022-08-11T16:51:36;28.20;53.80
14620;DHT22;32125;48.518;9.050;2022-08-11T16:54:03;28.10;52.30
14620;DHT22;32125;48.518;9.050;2022-08-11T17:07:19;27.90;53.60
14620;DHT22;32125;48.518;9.050;2022-08-11T17:10:06;27.90;56.40
14620;DHT22;32125;48.518;9.050;2022-08-11T17:13:08;27.80;53.00
14620;DHT22;32125;48.518;9.050;2022-08-11T17:15:36;27.70;56.60
14620;DHT22;32125;48.518;9.050;2022-08-11T17:18:22;27.70;56.00
14620;DHT22;32125;48.518;9.050;2022-08-11T17:21:17;27.60;56.30
14620;DHT22;32125;48.518;9.050;2022-08-11T17:23:47;27.50;57.70
14620;DHT22;32125;48.518;9.050;2022-08-11T17:26:41;27.40;56.60
14620;DHT22;32125;48.518;9.050;2022-08-11T17:32:04;27.30;57.20
14620;DHT22;32125;48.518;9.050;2022-08-11T17:34:58;27.30;58.40
14620;DHT22;32125;48.518;9.050;2022-08-11T17:37:48;27.20;55.40
14620;DHT22;32125;48.518;9.050;2022-08-11T17:40:19;27.10;55.70
14620;DHT22;32125;48.518;9.050;2022-08-11T17:42:53;27.10;55.80
14620;DHT22;32125;48.518;9.050;2022-08-11T17:45:39;27.00;57.90
14620;DHT22;32125;48.518;9.050;2022-08-11T17:48:30;26.90;57.80
14620;DHT22;32125;48.518;9.050;2022-08-11T17:51:00;26.90;56.90
14620;DHT22;32125;48.518;9.050;2022-08-11T17:56:14;26.70;57.10
14620;DHT22;32125;48.518;9.050;2022-08-11T17:59:02;26.60;55.70
14620;DHT22;32125;48.518;9.050;2022-08-11T18:01:51;26.60;56.70
14620;DHT22;32125;48.518;9.050;2022-08-11T18:04:19;26.60;58.00
14620;DHT22;32125;48.518;9.050;2022-08-11T18:06:49;26.60;56.60
14620;DHT22;32125;48.518;9.050;2022-08-11T18:09:19;26.50;58.40
14620;DHT22;32125;48.518;9.050;2022-08-11T18:17:38;26.30;57.90
14620;DHT22;32125;48.518;9.050;2022-08-11T18:20:24;26.20;59.10
14620;DHT22;32125;48.518;9.050;2022-08-11T18:23:18;26.20;59.40
14620;DHT22;32125;48.518;9.050;2022-08-11T18:26:03;26.20;61.50
14620;DHT22;32125;48.518;9.050;2022-08-11T18:28:52;26.00;59.90
14620;DHT22;32125;48.518;9.050;2022-08-11T18:31:43;26.00;61.50
14620;DHT22;32125;48.518;9.050;2022-08-11T18:34:38;25.90;59.80
14620;DHT22;32125;48.518;9.050;2022-08-11T18:37:29;25.90;58.90
14620;DHT22;32125;48.518;9.050;2022-08-11T18:40:19;25.80;60.50
14620;DHT22;32125;48.518;9.050;2022-08-11T18:43:08;25.70;61.00
14620;DHT22;32125;48.518;9.050;2022-08-11T18:45:56;25.60;58.10
14620;DHT22;32125;48.518;9.050;2022-08-11T18:48:47;25.50;59.90
14620;DHT22;32125;48.518;9.050;2022-08-11T18:54:22;25.40;59.10
14620;DHT22;32125;48.518;9.050;2022-08-11T18:57:12;25.30;60.90
14620;DHT22;32125;48.518;9.050;2022-08-11T19:00:00;25.20;59.30
14620;DHT22;32125;48.518;9.050;2022-08-11T19:02:45;25.20;59.80
14620;DHT22;32125;48.518;9.050;2022-08-11T19:05:32;25.10;60.30
14620;DHT22;32125;48.518;9.050;2022-08-11T19:08:20;25.00;59.70
14620;DHT22;32125;48.518;9.050;2022-08-11T19:11:06;24.90;59.90
14620;DHT22;32125;48.518;9.050;2022-08-11T19:13:51;24.90;62.10
14620;DHT22;32125;48.518;9.050;2022-08-11T19:16:38;24.80;60.90
14620;DHT22;32125;48.518;9.050;2022-08-11T19:19:25;24.70;61.10
14620;DHT22;32125;48.518;9.050;2022-08-11T19:22:11;24.60;60.00
14620;DHT22;32125;48.518;9.050;2022-08-11T19:24:55;24.50;61.00
14620;DHT22;32125;48.518;9.050;2022-08-11T19:27:40;24.50;62.10
14620;DHT22;32125;48.518;9.050;2022-08-11T19:30:26;24.40;62.20
14620;DHT22;32125;48.518;9.050;2022-08-11T19:33:12;24.30;62.20
14620;DHT22;32125;48.518;9.050;2022-08-11T19:35:57;24.20;62.50
14620;DHT22;32125;48.518;9.050;2022-08-11T19:38:44;24.10;62.70
14620;DHT22;32125;48.518;9.050;2022-08-11T19:44:14;23.90;63.40
14620;DHT22;32125;48.518;9.050;2022-08-11T19:47:00;23.80;63.80
14620;DHT22;32125;48.518;9.050;2022-08-11T19:49:45;23.70;63.80
14620;DHT22;32125;48.518;9.050;2022-08-11T19:52:31;23.60;64.60
14620;DHT22;32125;48.518;9.050;2022-08-11T19:55:17;23.50;65.20
14620;DHT22;32125;48.518;9.050;2022-08-11T19:58:02;23.40;66.00
14620;DHT22;32125;48.518;9.050;2022-08-11T20:00:47;23.40;65.10
14620;DHT22;32125;48.518;9.050;2022-08-11T20:06:18;23.20;66.50
14620;DHT22;32125;48.518;9.050;2022-08-11T20:09:04;23.10;67.50
14620;DHT22;32125;48.518;9.050;2022-08-11T20:11:53;23.00;66.90
14620;DHT22;32125;48.518;9.050;2022-08-11T20:14:41;22.90;66.00
14620;DHT22;32125;48.518;9.050;2022-08-11T20:17:27;22.80;67.50
14620;DHT22;32125;48.518;9.050;2022-08-11T20:20:13;22.70;67.90
14620;DHT22;32125;48.518;9.050;2022-08-11T20:23:01;22.60;67.80
14620;DHT22;32125;48.518;9.050;2022-08-11T20:25:47;22.60;68.10
14620;DHT22;32125;48.518;9.050;2022-08-11T20:28:32;22.50;69.00
14620;DHT22;32125;48.518;9.050;2022-08-11T20:31:20;22.40;69.40
14620;DHT22;32125;48.518;9.050;2022-08-11T20:34:07;22.30;70.30
14620;DHT22;32125;48.518;9.050;2022-08-11T20:39:39;22.20;71.00
14620;DHT22;32125;48.518;9.050;2022-08-11T20:42:25;22.10;71.10
14620;DHT22;32125;48.518;9.050;2022-08-11T20:45:12;22.00;71.30
14620;DHT22;32125;48.518;9.050;2022-08-11T20:47:57;21.90;71.80
14620;DHT22;32125;48.518;9.050;2022-08-11T20:50:45;21.80;73.20
14620;DHT22;32125;48.518;9.050;2022-08-11T20:53:31;21.70;73.50
14620;DHT22;32125;48.518;9.050;2022-08-11T20:56:18;21.60;74.50
14620;DHT22;32125;48.518;9.050;2022-08-11T20:59:03;21.60;74.40
14620;DHT22;32125;48.518;9.050;2022-08-11T21:01:48;21.40;74.80
14620;DHT22;32125;48.518;9.050;2022-08-11T21:04:32;21.50;76.00
14620;DHT22;32125;48.518;9.050;2022-08-11T21:07:20;21.40;75.70
14620;DHT22;32125;48.518;9.050;2022-08-11T21:10:09;21.40;76.40
14620;DHT22;32125;48.518;9.050;2022-08-11T21:12:55;21.30;76.50
14620;DHT22;32125;48.518;9.050;2022-08-11T21:18:26;21.10;77.70
14620;DHT22;32125;48.518;9.050;2022-08-11T21:24:00;21.00;78.40
14620;DHT22;32125;48.518;9.050;2022-08-11T21:26:47;20.90;79.90
14620;DHT22;32125;48.518;9.050;2022-08-11T21:29:38;20.80;80.10
14620;DHT22;32125;48.518;9.050;2022-08-11T21:32:23;20.80;80.50
14620;DHT22;32125;48.518;9.050;2022-08-11T21:35:09;20.70;81.00
14620;DHT22;32125;48.518;9.050;2022-08-11T21:37:55;20.60;82.40
14620;DHT22;32125;48.518;9.050;2022-08-11T21:40:40;20.60;79.80
14620;DHT22;32125;48.518;9.050;2022-08-11T21:46:11;20.50;81.80
14620;DHT22;32125;48.518;9.050;2022-08-11T21:54:26;20.40;85.50
14620;DHT22;32125;48.518;9.050;2022-08-11T21:59:59;20.20;85.20
14620;DHT22;32125;48.518;9.050;2022-08-11T22:02:47;20.20;87.40
14620;DHT22;32125;48.518;9.050;2022-08-11T22:05:35;20.10;85.50
14620;DHT22;32125;48.518;9.050;2022-08-11T22:08:22;20.00;86.00
14620;DHT22;32125;48.518;9.050;2022-08-11T22:11:09;20.00;84.70
14620;DHT22;32125;48.518;9.050;2022-08-11T22:13:53;20.00;84.60
14620;DHT22;32125;48.518;9.050;2022-08-11T22:16:37;19.90;84.60
14620;DHT22;32125;48.518;9.050;2022-08-11T22:27:37;19.70;87.50
14620;DHT22;32125;48.518;9.050;2022-08-11T22:35:52;19.60;88.80
14620;DHT22;32125;48.518;9.050;2022-08-11T22:41:23;19.50;90.50
14620;DHT22;32125;48.518;9.050;2022-08-11T22:44:08;19.40;90.80
14620;DHT22;32125;48.518;9.050;2022-08-11T22:46:55;19.30;90.60
14620;DHT22;32125;48.518;9.050;2022-08-11T22:49:41;19.30;90.50
14620;DHT22;32125;48.518;9.050;2022-08-11T22:55:14;19.20;90.70
14620;DHT22;32125;48.518;9.050;2022-08-11T22:58:02;19.10;91.00
14620;DHT22;32125;48.518;9.050;2022-08-11T23:00:48;19.00;91.30
14620;DHT22;32125;48.518;9.050;2022-08-11T23:09:03;18.90;91.40
14620;DHT22;32125;48.518;9.050;2022-08-11T23:11:49;18.90;91.70
14620;DHT22;32125;48.518;9.050;2022-08-11T23:14:35;18.80;92.00
14620;DHT22;32125;48.518;9.050;2022-08-11T23:17:21;18.70;92.60
14620;DHT22;32125;48.518;9.050;2022-08-11T23:22:54;18.70;93.00
14620;DHT22;32125;48.518;9.050;2022-08-11T23:25:39;18.60;92.90
14620;DHT22;32125;48.518;9.050;2022-08-11T23:28:26;18.60;93.70
14620;DHT22;32125;48.518;9.050;2022-08-11T23:31:13;18.50;94.10
14620;DHT22;32125;48.518;9.050;2022-08-11T23:33:59;18.40;93.90
14620;DHT22;32125;48.518;9.050;2022-08-11T23:36:45;18.30;94.50
14620;DHT22;32125;48.518;9.050;2022-08-11T23:39:30;18.40;94.80
14620;DHT22;32125;48.518;9.050;2022-08-11T23:42:16;18.20;95.20
14620;DHT22;32125;48.518;9.050;2022-08-11T23:45:01;18.10;95.60
14620;DHT22;32125;48.518;9.050;2022-08-11T23:50:30;18.00;96.00
14620;DHT22;32125;48.518;9.050;2022-08-11T23:53:16;17.90;96.50
14620;DHT22;32125;48.518;9.050;2022-08-11T23:56:02;17.90;97.20
14620;DHT22;32125;48.518;9.050;2022-08-11T23:58:49;17.90;97.20
